Hartford, Wisconsin
Current Conditions -  °F | °C
As of 3:15 PM on Saturday 22 Nov 2014 (Local Time) from KETB Reporting Station
Haze Haze  
Wind Chill: 38°   Ceiling: 400
Heat Index: 43°   Visibility: 3mi
Dew Point: 41°   Wind: 8mph
Humidity: 93%   Direction: 230°SW
Pressure: 29.79"   Gusts: NA
Location:  43.32°N, 88.38°W
Report Text: KETB 222115Z AUTO 23007KT 3SM BR OVC004 06/05 A2979 RMK AO2
Loading
Personal Weather Stations






























Interactive Weather Map New forecast layout! Learn more

10-Day Weather Forecast

Advertisements
Track Severe Weather on mobile